Time;durP1;ratioP1;P1;durP2;ratioP2;P2;SDS_P1;SDS_P2;PMS_P1;PMS_P2;Temp;Humidity;BMP_temperature;BMP_pressure;BME280_temperature;BME280_humidity;BME280_pressure;Samples;Min_cycle;Max_cycle;Signal;HPM_P1;HPM_P2
2023/09/24 00:01:47;;;;;;;;;;;21.70;52.80;;;;;;5072396;28;19925;-60
2023/09/24 00:04:14;;;;;;;;;;;21.70;52.70;;;;;;5073507;28;19924;-60
2023/09/24 00:06:41;;;;;;;;;;;21.70;52.70;;;;;;5052518;28;20019;-59
2023/09/24 00:09:08;;;;;;;;;;;21.70;52.70;;;;;;5072762;28;19931;-61
2023/09/24 00:11:35;;;;;;;;;;;21.70;52.70;;;;;;5086713;28;19932;-60
2023/09/24 00:14:03;;;;;;;;;;;21.70;52.70;;;;;;5073280;28;19932;-60
2023/09/24 00:16:31;;;;;;;;;;;21.70;52.70;;;;;;5072831;28;19943;-60
2023/09/24 00:18:58;;;;;;;;;;;21.70;52.70;;;;;;5069159;28;19924;-60
2023/09/24 00:21:25;;;;;;;;;;;21.70;52.70;;;;;;5072238;28;19995;-61
2023/09/24 00:23:52;;;;;;;;;;;21.70;52.70;;;;;;5104529;28;19951;-61
2023/09/24 00:26:19;;;;;;;;;;;21.70;52.70;;;;;;5071389;28;19924;-60
2023/09/24 00:28:46;;;;;;;;;;;21.70;52.60;;;;;;5103342;28;20032;-61
2023/09/24 00:31:13;;;;;;;;;;;21.70;52.60;;;;;;5074101;28;19947;-61
2023/09/24 00:33:41;;;;;;;;;;;21.70;52.60;;;;;;5073926;28;19925;-62
2023/09/24 00:36:08;;;;;;;;;;;21.70;52.60;;;;;;5077299;28;19925;-62
2023/09/24 00:38:35;;;;;;;;;;;21.70;52.60;;;;;;5094268;28;20281;-60
2023/09/24 00:41:01;;;;;;;;;;;21.70;52.60;;;;;;5086696;28;19924;-60
2023/09/24 00:43:28;;;;;;;;;;;21.70;52.60;;;;;;5080178;28;20022;-61
2023/09/24 00:45:55;;;;;;;;;;;21.70;52.50;;;;;;5072162;28;19928;-60
2023/09/24 00:48:23;;;;;;;;;;;21.70;52.50;;;;;;5095029;28;19940;-60
2023/09/24 00:50:51;;;;;;;;;;;21.70;52.50;;;;;;5089166;28;20053;-60
2023/09/24 00:53:18;;;;;;;;;;;21.70;52.50;;;;;;5099223;28;19924;-61
2023/09/24 00:55:44;;;;;;;;;;;21.70;52.50;;;;;;5076752;28;20283;-60
2023/09/24 00:58:12;;;;;;;;;;;21.70;52.50;;;;;;5074223;28;19931;-61
2023/09/24 01:00:38;;;;;;;;;;;21.70;52.50;;;;;;5078083;28;19928;-62
2023/09/24 01:03:06;;;;;;;;;;;21.70;52.50;;;;;;5071803;28;20366;-61
2023/09/24 01:05:34;;;;;;;;;;;21.70;52.50;;;;;;5095286;28;20446;-60
2023/09/24 01:08:03;;;;;;;;;;;21.70;52.40;;;;;;5070966;28;19964;-62
2023/09/24 01:10:30;;;;;;;;;;;21.70;52.40;;;;;;5096492;28;19928;-60
2023/09/24 01:12:58;;;;;;;;;;;21.70;52.40;;;;;;5076786;28;19932;-60
2023/09/24 01:15:26;;;;;;;;;;;21.70;52.40;;;;;;5078428;28;19932;-62
2023/09/24 01:17:53;;;;;;;;;;;21.70;52.40;;;;;;5070567;28;20548;-61
2023/09/24 01:20:21;;;;;;;;;;;21.70;52.40;;;;;;5088269;28;19925;-60
2023/09/24 01:22:50;;;;;;;;;;;21.70;52.30;;;;;;5080479;28;19955;-60
2023/09/24 01:25:18;;;;;;;;;;;21.70;52.40;;;;;;5073162;28;19932;-60
2023/09/24 01:27:45;;;;;;;;;;;21.70;52.40;;;;;;5076644;28;19938;-61
2023/09/24 01:30:12;;;;;;;;;;;21.70;52.30;;;;;;5072758;28;19924;-59
2023/09/24 01:32:40;;;;;;;;;;;21.70;52.30;;;;;;5086897;28;20011;-60
2023/09/24 01:35:07;;;;;;;;;;;21.70;52.30;;;;;;5072690;28;19928;-61
2023/09/24 01:37:34;;;;;;;;;;;21.70;52.30;;;;;;5092051;28;19925;-60
2023/09/24 01:40:09;;;;;;;;;;;21.70;52.20;;;;;;5066780;28;19986;-61
2023/09/24 01:42:36;;;;;;;;;;;21.70;52.80;;;;;;5070517;28;19928;-60
2023/09/24 01:45:03;;;;;;;;;;;21.70;52.30;;;;;;5073259;28;19924;-63
2023/09/24 01:47:30;;;;;;;;;;;21.70;52.20;;;;;;5091978;28;20283;-60
2023/09/24 01:49:58;;;;;;;;;;;21.70;52.20;;;;;;5077094;28;20001;-60
2023/09/24 01:52:25;;;;;;;;;;;21.70;52.20;;;;;;5072437;28;19942;-61
2023/09/24 01:54:52;;;;;;;;;;;21.70;52.20;;;;;;5073409;28;19998;-59
2023/09/24 01:57:20;;;;;;;;;;;21.60;52.10;;;;;;5071829;28;19931;-61
2023/09/24 01:59:47;;;;;;;;;;;21.70;52.10;;;;;;5069943;28;20023;-60
2023/09/24 02:02:14;;;;;;;;;;;21.70;52.10;;;;;;5068887;28;19998;-60
2023/09/24 02:04:41;;;;;;;;;;;21.70;52.00;;;;;;5071015;28;19946;-60
2023/09/24 02:07:08;;;;;;;;;;;21.70;52.00;;;;;;5089583;28;19932;-61
2023/09/24 02:09:37;;;;;;;;;;;21.70;52.00;;;;;;5064524;28;19955;-59
2023/09/24 02:12:04;;;;;;;;;;;21.70;52.00;;;;;;5070043;28;19924;-60
2023/09/24 02:14:32;;;;;;;;;;;21.70;52.00;;;;;;5086963;28;19924;-60
2023/09/24 02:16:59;;;;;;;;;;;21.70;51.90;;;;;;5093111;28;19931;-60
2023/09/24 02:19:26;;;;;;;;;;;21.70;51.90;;;;;;5089176;28;19928;-61
2023/09/24 02:21:53;;;;;;;;;;;21.70;51.90;;;;;;5071138;28;20027;-60
2023/09/24 02:24:20;;;;;;;;;;;21.70;51.90;;;;;;5093607;28;19955;-60
2023/09/24 02:26:47;;;;;;;;;;;21.70;51.90;;;;;;5077358;28;20136;-61
2023/09/24 02:29:16;;;;;;;;;;;21.70;51.90;;;;;;5090477;28;19924;-61
2023/09/24 02:31:44;;;;;;;;;;;21.70;51.90;;;;;;5074543;28;19987;-58
2023/09/24 02:34:11;;;;;;;;;;;21.60;51.80;;;;;;5091087;28;19924;-60
2023/09/24 02:36:38;;;;;;;;;;;21.70;51.90;;;;;;5074227;28;19928;-61
2023/09/24 02:39:06;;;;;;;;;;;21.60;51.70;;;;;;5090202;28;19973;-63
2023/09/24 02:41:33;;;;;;;;;;;21.60;51.70;;;;;;5070469;28;20006;-60
2023/09/24 02:44:01;;;;;;;;;;;21.60;51.70;;;;;;5074539;28;20025;-61
2023/09/24 02:46:29;;;;;;;;;;;21.60;51.70;;;;;;5089004;28;19974;-61
2023/09/24 02:48:58;;;;;;;;;;;21.60;51.60;;;;;;5072746;28;19924;-60
2023/09/24 02:51:24;;;;;;;;;;;21.60;51.60;;;;;;5073232;28;19928;-61
2023/09/24 02:53:51;;;;;;;;;;;21.60;51.60;;;;;;5089356;28;19925;-60
2023/09/24 02:56:18;;;;;;;;;;;21.60;51.60;;;;;;5074328;28;19932;-61
2023/09/24 02:58:45;;;;;;;;;;;21.60;51.60;;;;;;5090356;28;19925;-59
2023/09/24 03:01:12;;;;;;;;;;;21.60;51.60;;;;;;5078026;28;19995;-61
2023/09/24 03:03:39;;;;;;;;;;;21.60;51.50;;;;;;5098937;28;20011;-60
2023/09/24 03:06:09;;;;;;;;;;;21.60;51.50;;;;;;5073753;28;20028;-62
2023/09/24 03:08:36;;;;;;;;;;;21.60;51.50;;;;;;5067440;28;19979;-60
2023/09/24 03:11:04;;;;;;;;;;;21.60;51.50;;;;;;5073760;28;19995;-61
2023/09/24 03:13:31;;;;;;;;;;;21.60;51.40;;;;;;5081198;28;19939;-60
2023/09/24 03:15:58;;;;;;;;;;;21.60;51.40;;;;;;5072556;28;19948;-60
2023/09/24 03:18:25;;;;;;;;;;;21.60;51.40;;;;;;5074559;28;19932;-60
2023/09/24 03:20:52;;;;;;;;;;;21.60;51.30;;;;;;5073881;28;19924;-60
2023/09/24 03:23:20;;;;;;;;;;;21.60;51.30;;;;;;5094342;28;19928;-61
2023/09/24 03:25:47;;;;;;;;;;;21.60;51.30;;;;;;5073311;28;20032;-59
2023/09/24 03:28:14;;;;;;;;;;;21.60;51.90;;;;;;5073246;28;20497;-61
2023/09/24 03:30:41;;;;;;;;;;;21.60;51.20;;;;;;5076329;28;19984;-60
2023/09/24 03:33:08;;;;;;;;;;;21.60;51.20;;;;;;5071394;28;19929;-60
2023/09/24 03:35:35;;;;;;;;;;;21.60;51.20;;;;;;5072249;28;19924;-60
2023/09/24 03:38:02;;;;;;;;;;;21.60;51.10;;;;;;5073090;28;19939;-60
2023/09/24 03:40:30;;;;;;;;;;;21.50;51.00;;;;;;5090888;28;19924;-60
2023/09/24 03:42:57;;;;;;;;;;;21.50;51.00;;;;;;5082342;28;19924;-60
2023/09/24 03:45:24;;;;;;;;;;;21.50;51.00;;;;;;5100620;28;19924;-60
2023/09/24 03:47:51;;;;;;;;;;;21.50;50.90;;;;;;5069776;28;20251;-60
2023/09/24 03:50:18;;;;;;;;;;;21.50;50.90;;;;;;5071090;28;20274;-60
2023/09/24 03:52:45;;;;;;;;;;;21.50;50.90;;;;;;5073752;28;20408;-59
2023/09/24 03:55:12;;;;;;;;;;;21.50;50.90;;;;;;5086993;28;19931;-60
2023/09/24 03:57:40;;;;;;;;;;;21.50;51.50;;;;;;5067256;28;19924;-60
2023/09/24 04:00:11;;;;;;;;;;;21.50;50.80;;;;;;5056361;28;19924;-60
2023/09/24 04:02:39;;;;;;;;;;;21.50;50.80;;;;;;5073880;28;19935;-60
2023/09/24 04:05:08;;;;;;;;;;;21.50;50.80;;;;;;5056233;28;19935;-61
2023/09/24 04:07:37;;;;;;;;;;;21.50;50.80;;;;;;5056562;28;19963;-60
2023/09/24 04:10:04;;;;;;;;;;;21.50;50.70;;;;;;5072720;28;19924;-61
2023/09/24 04:12:33;;;;;;;;;;;21.50;50.70;;;;;;5070538;28;19935;-61
2023/09/24 04:15:01;;;;;;;;;;;21.50;50.70;;;;;;5094530;28;19929;-60
2023/09/24 04:17:28;;;;;;;;;;;21.50;50.70;;;;;;5067702;28;19924;-60
2023/09/24 04:19:55;;;;;;;;;;;21.50;50.70;;;;;;5085620;28;19924;-61
2023/09/24 04:22:24;;;;;;;;;;;21.50;50.60;;;;;;5050402;28;19967;-60
2023/09/24 04:24:53;;;;;;;;;;;21.50;50.60;;;;;;5073424;28;19947;-60
2023/09/24 04:27:20;;;;;;;;;;;21.50;50.60;;;;;;5070097;28;19934;-60
2023/09/24 04:29:47;;;;;;;;;;;21.50;50.50;;;;;;5075585;28;20357;-60
2023/09/24 04:32:16;;;;;;;;;;;21.50;50.50;;;;;;5054591;28;19925;-61
2023/09/24 04:34:44;;;;;;;;;;;21.50;50.50;;;;;;5069050;28;19932;-61
2023/09/24 04:37:12;;;;;;;;;;;21.50;50.50;;;;;;5057057;28;19974;-61
2023/09/24 04:39:39;;;;;;;;;;;21.50;50.40;;;;;;5052264;28;20368;-61
2023/09/24 04:42:07;;;;;;;;;;;21.50;50.40;;;;;;5086653;28;19973;-61
2023/09/24 04:44:34;;;;;;;;;;;21.50;50.40;;;;;;5054475;28;19975;-61
2023/09/24 04:47:01;;;;;;;;;;;21.50;50.40;;;;;;5056821;28;19928;-61
2023/09/24 04:49:29;;;;;;;;;;;21.50;50.30;;;;;;5057216;28;19931;-60
2023/09/24 04:51:56;;;;;;;;;;;21.50;50.30;;;;;;5057077;28;19947;-60
2023/09/24 04:54:23;;;;;;;;;;;21.50;50.30;;;;;;5086318;28;19924;-61
2023/09/24 04:56:52;;;;;;;;;;;21.50;50.30;;;;;;5054785;28;19932;-60
2023/09/24 04:59:19;;;;;;;;;;;21.50;50.30;;;;;;5068761;28;19924;-61
2023/09/24 05:01:45;;;;;;;;;;;21.50;50.20;;;;;;5068061;28;19978;-61
2023/09/24 05:04:12;;;;;;;;;;;21.50;50.20;;;;;;5073280;28;20290;-61
2023/09/24 05:06:41;;;;;;;;;;;21.50;50.20;;;;;;5071278;28;19928;-61
2023/09/24 05:09:08;;;;;;;;;;;21.50;50.10;;;;;;5073121;28;19928;-61
2023/09/24 05:11:34;;;;;;;;;;;21.50;50.10;;;;;;5069305;28;19994;-61
2023/09/24 05:14:01;;;;;;;;;;;21.50;50.10;;;;;;5071093;28;19978;-60
2023/09/24 05:16:30;;;;;;;;;;;21.50;50.10;;;;;;5073490;28;19924;-61
2023/09/24 05:19:01;;;;;;;;;;;21.50;50.00;;;;;;5073094;28;19924;-61
2023/09/24 05:21:28;;;;;;;;;;;21.50;50.00;;;;;;5089777;28;19959;-61
2023/09/24 05:23:57;;;;;;;;;;;21.50;50.00;;;;;;5073150;28;19924;-60
2023/09/24 05:26:23;;;;;;;;;;;21.50;49.90;;;;;;5071697;28;19925;-61
2023/09/24 05:28:50;;;;;;;;;;;21.50;49.90;;;;;;5104249;28;19932;-60
2023/09/24 05:31:17;;;;;;;;;;;21.40;49.80;;;;;;5078693;28;19958;-60
2023/09/24 05:33:45;;;;;;;;;;;21.40;49.80;;;;;;5074810;28;19924;-61
2023/09/24 05:36:11;;;;;;;;;;;21.50;49.80;;;;;;5074869;28;19929;-60
2023/09/24 05:38:38;;;;;;;;;;;21.40;49.70;;;;;;5071953;28;19920;-60
2023/09/24 05:41:06;;;;;;;;;;;21.40;49.80;;;;;;5071436;28;20374;-62
2023/09/24 05:43:33;;;;;;;;;;;21.40;49.70;;;;;;5072483;28;19932;-60
2023/09/24 05:46:01;;;;;;;;;;;21.40;49.80;;;;;;5101846;28;19992;-61
2023/09/24 05:48:29;;;;;;;;;;;21.50;49.90;;;;;;5072889;28;19939;-63
2023/09/24 05:50:56;;;;;;;;;;;21.40;49.90;;;;;;5070188;28;19935;-60
2023/09/24 05:53:22;;;;;;;;;;;21.40;49.90;;;;;;5089397;28;19928;-61
2023/09/24 05:55:53;;;;;;;;;;;21.40;49.90;;;;;;5072725;28;19935;-61
2023/09/24 05:58:21;;;;;;;;;;;21.40;50.00;;;;;;5074022;28;19925;-61
2023/09/24 06:00:48;;;;;;;;;;;21.40;50.00;;;;;;5072332;28;20023;-61
2023/09/24 06:03:15;;;;;;;;;;;21.40;50.00;;;;;;5089604;28;19924;-60
2023/09/24 06:05:42;;;;;;;;;;;21.50;50.20;;;;;;5094887;28;20385;-62
2023/09/24 06:08:09;;;;;;;;;;;21.50;50.20;;;;;;5077439;28;19924;-60
2023/09/24 06:10:36;;;;;;;;;;;21.50;50.30;;;;;;5073861;28;19935;-61
2023/09/24 06:13:02;;;;;;;;;;;21.50;50.20;;;;;;5079417;28;19931;-61
2023/09/24 06:15:31;;;;;;;;;;;21.50;50.20;;;;;;5075640;28;19920;-60
2023/09/24 06:17:58;;;;;;;;;;;21.50;50.20;;;;;;5075200;28;19928;-60
2023/09/24 06:20:25;;;;;;;;;;;21.50;50.20;;;;;;5077077;28;19932;-60
2023/09/24 06:22:53;;;;;;;;;;;21.50;50.30;;;;;;5077385;28;19947;-60
2023/09/24 06:25:21;;;;;;;;;;;21.50;50.30;;;;;;5091556;28;19978;-60
2023/09/24 06:27:48;;;;;;;;;;;21.50;50.30;;;;;;5071665;28;19924;-59
2023/09/24 06:30:15;;;;;;;;;;;21.50;50.30;;;;;;5076415;28;19924;-60
2023/09/24 06:32:43;;;;;;;;;;;21.50;50.30;;;;;;5091006;28;19998;-61
2023/09/24 06:35:10;;;;;;;;;;;21.50;50.30;;;;;;5091169;28;19931;-62
2023/09/24 06:37:37;;;;;;;;;;;21.50;50.90;;;;;;5074067;28;20167;-61
2023/09/24 06:40:04;;;;;;;;;;;21.50;50.30;;;;;;5073319;28;19947;-59
2023/09/24 06:42:31;;;;;;;;;;;21.50;50.60;;;;;;5074212;28;19938;-62
2023/09/24 06:44:58;;;;;;;;;;;21.50;50.40;;;;;;5089359;28;19925;-60
2023/09/24 06:47:25;;;;;;;;;;;21.50;50.40;;;;;;5076313;28;21478;-60
2023/09/24 06:49:53;;;;;;;;;;;21.50;50.30;;;;;;5072449;28;19925;-61
2023/09/24 06:52:20;;;;;;;;;;;21.50;50.40;;;;;;5074824;28;19925;-60
2023/09/24 06:54:46;;;;;;;;;;;21.50;50.30;;;;;;5088173;28;20039;-59
2023/09/24 06:57:14;;;;;;;;;;;21.50;50.30;;;;;;5073744;28;19933;-61
2023/09/24 06:59:40;;;;;;;;;;;21.50;50.30;;;;;;5072727;28;20091;-60
2023/09/24 07:02:07;;;;;;;;;;;21.50;50.30;;;;;;5072185;28;19924;-60
2023/09/24 07:04:34;;;;;;;;;;;21.50;50.30;;;;;;5074943;28;19924;-60
2023/09/24 07:07:02;;;;;;;;;;;21.50;50.30;;;;;;5091664;28;19929;-61
2023/09/24 07:09:29;;;;;;;;;;;21.50;50.50;;;;;;5071025;28;19959;-61
2023/09/24 07:11:56;;;;;;;;;;;21.50;50.40;;;;;;5072682;28;19930;-60
2023/09/24 07:14:23;;;;;;;;;;;21.50;50.40;;;;;;5106451;27;19928;-60
2023/09/24 07:16:49;;;;;;;;;;;21.50;50.40;;;;;;5073312;28;19925;-59
2023/09/24 07:19:19;;;;;;;;;;;21.50;50.40;;;;;;5071652;28;20018;-60
2023/09/24 07:21:46;;;;;;;;;;;21.50;50.40;;;;;;5073035;28;19981;-60
2023/09/24 07:24:14;;;;;;;;;;;21.50;50.50;;;;;;5070771;28;19939;-60
2023/09/24 07:26:42;;;;;;;;;;;21.50;50.50;;;;;;5071831;28;19982;-63
2023/09/24 07:29:08;;;;;;;;;;;21.50;50.50;;;;;;5072579;28;19959;-61
2023/09/24 07:31:35;;;;;;;;;;;21.50;50.50;;;;;;5070378;28;19921;-62
2023/09/24 07:34:05;;;;;;;;;;;21.50;50.60;;;;;;5071955;28;19932;-61
2023/09/24 07:36:32;;;;;;;;;;;21.50;50.70;;;;;;5072418;28;19925;-60
2023/09/24 07:38:59;;;;;;;;;;;21.50;50.70;;;;;;5071102;28;19975;-60
2023/09/24 07:41:27;;;;;;;;;;;21.50;50.70;;;;;;5069979;28;19981;-61
2023/09/24 07:43:54;;;;;;;;;;;21.50;50.70;;;;;;5069632;28;20251;-61
2023/09/24 07:46:21;;;;;;;;;;;21.50;50.80;;;;;;5073180;28;19933;-60
2023/09/24 07:48:48;;;;;;;;;;;21.50;50.80;;;;;;5071445;28;19924;-63
2023/09/24 07:51:16;;;;;;;;;;;21.50;50.80;;;;;;5086526;28;19924;-60
2023/09/24 07:53:42;;;;;;;;;;;21.50;50.80;;;;;;5090465;28;20011;-60
2023/09/24 07:56:10;;;;;;;;;;;21.50;50.80;;;;;;5072636;28;20431;-62
2023/09/24 07:58:38;;;;;;;;;;;21.50;50.90;;;;;;5073881;28;20030;-60
2023/09/24 08:01:06;;;;;;;;;;;21.50;50.90;;;;;;5071213;28;19929;-63
2023/09/24 08:03:33;;;;;;;;;;;21.50;50.90;;;;;;5072527;28;19970;-63
2023/09/24 08:05:59;;;;;;;;;;;21.50;50.90;;;;;;5072508;28;19936;-61
2023/09/24 08:08:26;;;;;;;;;;;21.50;51.00;;;;;;5070742;28;19931;-61
2023/09/24 08:10:53;;;;;;;;;;;21.50;51.00;;;;;;5068089;28;19936;-61
2023/09/24 08:13:20;;;;;;;;;;;21.50;51.10;;;;;;5088871;28;19946;-60
2023/09/24 08:15:48;;;;;;;;;;;21.50;51.10;;;;;;5066904;28;19925;-60
2023/09/24 08:18:15;;;;;;;;;;;21.50;51.10;;;;;;5059527;28;19970;-60
2023/09/24 08:20:42;;;;;;;;;;;21.50;51.10;;;;;;5091764;28;19928;-61
2023/09/24 08:23:09;;;;;;;;;;;21.50;51.10;;;;;;5079252;28;19931;-60
2023/09/24 08:25:36;;;;;;;;;;;21.50;51.20;;;;;;5091510;28;19924;-62
2023/09/24 08:28:03;;;;;;;;;;;21.50;51.20;;;;;;5076959;28;20370;-62
2023/09/24 08:30:31;;;;;;;;;;;21.60;51.30;;;;;;5063281;28;19955;-60
2023/09/24 08:32:59;;;;;;;;;;;21.60;51.40;;;;;;5069843;28;19939;-60
2023/09/24 08:35:25;;;;;;;;;;;21.60;51.50;;;;;;5073310;28;19928;-60
2023/09/24 08:37:52;;;;;;;;;;;21.60;51.50;;;;;;5090983;28;19924;-60
2023/09/24 08:40:19;;;;;;;;;;;21.60;51.70;;;;;;5091034;28;19955;-59
2023/09/24 08:42:47;;;;;;;;;;;21.60;51.80;;;;;;5082910;28;19959;-59
2023/09/24 08:45:14;;;;;;;;;;;21.60;51.90;;;;;;5096564;28;19925;-60
2023/09/24 08:47:41;;;;;;;;;;;21.60;51.90;;;;;;5079649;28;20331;-60
2023/09/24 08:50:10;;;;;;;;;;;21.50;51.90;;;;;;5069826;28;19924;-60
2023/09/24 08:52:37;;;;;;;;;;;21.50;52.00;;;;;;5068963;28;19925;-60
2023/09/24 08:55:05;;;;;;;;;;;21.50;52.00;;;;;;5071396;28;20023;-59
2023/09/24 08:57:33;;;;;;;;;;;21.50;52.20;;;;;;5103979;28;19928;-60
2023/09/24 08:59:59;;;;;;;;;;;21.50;52.20;;;;;;5071623;28;19970;-60
2023/09/24 09:02:26;;;;;;;;;;;21.40;52.20;;;;;;5070009;28;19936;-60
2023/09/24 09:04:55;;;;;;;;;;;21.40;52.30;;;;;;5071419;28;20293;-60
2023/09/24 09:07:23;;;;;;;;;;;21.40;52.30;;;;;;5070191;28;19924;-59
2023/09/24 09:09:53;;;;;;;;;;;21.40;52.50;;;;;;5073903;28;19925;-59
2023/09/24 09:12:20;;;;;;;;;;;21.40;52.50;;;;;;5071578;28;19952;-60
2023/09/24 09:14:47;;;;;;;;;;;21.40;52.50;;;;;;5086456;28;19931;-60
2023/09/24 09:17:14;;;;;;;;;;;21.40;52.50;;;;;;5090529;28;19935;-58
2023/09/24 09:19:52;;;;;;;;;;;21.40;52.60;;;;;;5077327;28;19924;-59
2023/09/24 09:22:19;;;;;;;;;;;21.40;52.50;;;;;;5078905;28;20019;-60
2023/09/24 09:24:48;;;;;;;;;;;21.40;52.60;;;;;;5068716;28;19924;-61
2023/09/24 09:27:15;;;;;;;;;;;21.40;52.60;;;;;;5073180;28;19996;-63
2023/09/24 09:29:42;;;;;;;;;;;21.40;52.70;;;;;;5098468;28;19928;-62
2023/09/24 09:32:09;;;;;;;;;;;21.40;52.70;;;;;;5076547;28;20015;-63
2023/09/24 09:34:36;;;;;;;;;;;21.40;52.80;;;;;;5075327;28;19955;-62
2023/09/24 09:37:15;;;;;;;;;;;21.40;52.80;;;;;;5077560;28;19933;-62
2023/09/24 09:39:42;;;;;;;;;;;21.40;52.90;;;;;;5088440;28;19931;-63
2023/09/24 09:42:10;;;;;;;;;;;21.50;53.00;;;;;;5072753;28;19925;-63
2023/09/24 09:44:37;;;;;;;;;;;21.50;53.00;;;;;;5071560;28;19970;-62
2023/09/24 09:47:04;;;;;;;;;;;21.50;53.00;;;;;;5071183;28;19932;-62
2023/09/24 09:49:30;;;;;;;;;;;21.50;53.00;;;;;;5073594;28;19998;-61
2023/09/24 09:52:00;;;;;;;;;;;21.50;53.00;;;;;;5077254;28;19924;-62
2023/09/24 09:54:27;;;;;;;;;;;21.50;52.90;;;;;;5094835;28;20358;-61
2023/09/24 09:56:54;;;;;;;;;;;21.50;53.00;;;;;;5094479;28;19928;-60
2023/09/24 09:59:22;;;;;;;;;;;21.50;53.00;;;;;;5097206;28;19931;-62
2023/09/24 10:01:49;;;;;;;;;;;21.50;53.00;;;;;;5078787;28;19924;-61
2023/09/24 10:04:16;;;;;;;;;;;21.50;53.00;;;;;;5076110;28;19931;-61
2023/09/24 10:06:43;;;;;;;;;;;21.60;53.10;;;;;;5072821;28;19939;-55
2023/09/24 10:09:40;;;;;;;;;;;21.60;53.10;;;;;;5081341;28;19924;-61
2023/09/24 10:12:08;;;;;;;;;;;21.60;53.10;;;;;;5011084;28;20162;-60
2023/09/24 10:14:36;;;;;;;;;;;21.60;53.10;;;;;;5064902;28;19928;-61
2023/09/24 10:17:22;;;;;;;;;;;21.60;53.10;;;;;;5074210;28;20528;-63
2023/09/24 10:19:50;;;;;;;;;;;21.60;53.20;;;;;;5097552;28;20416;-62
2023/09/24 10:22:23;;;;;;;;;;;21.60;53.10;;;;;;5091072;28;19925;-62
2023/09/24 10:24:50;;;;;;;;;;;21.60;53.10;;;;;;5092945;28;19931;-62
2023/09/24 10:27:30;;;;;;;;;;;21.60;53.10;;;;;;5079094;28;19928;-59
2023/09/24 10:30:01;;;;;;;;;;;21.70;53.10;;;;;;5071116;28;20548;-62
2023/09/24 10:32:29;;;;;;;;;;;21.60;53.30;;;;;;5064654;28;20437;-62
2023/09/24 10:35:09;;;;;;;;;;;21.70;53.40;;;;;;5084238;28;20007;-61
2023/09/24 10:37:38;;;;;;;;;;;21.70;53.60;;;;;;5074077;28;19946;-60
2023/09/24 10:40:08;;;;;;;;;;;21.70;53.70;;;;;;5080557;28;20336;-60
2023/09/24 10:42:35;;;;;;;;;;;21.70;53.70;;;;;;5086901;28;20013;-58
2023/09/24 10:45:16;;;;;;;;;;;21.70;53.80;;;;;;5093536;28;20295;-58
2023/09/24 10:47:44;;;;;;;;;;;21.70;53.70;;;;;;5086692;28;19930;-59
2023/09/24 10:50:12;;;;;;;;;;;21.70;53.60;;;;;;5092699;28;19924;-61
2023/09/24 10:52:48;;;;;;;;;;;21.70;53.50;;;;;;5090641;28;19958;-59
2023/09/24 10:55:15;;;;;;;;;;;21.70;53.40;;;;;;5076578;28;19936;-61
2023/09/24 10:57:44;;;;;;;;;;;21.70;53.90;;;;;;5077787;28;19924;-58
2023/09/24 11:00:14;;;;;;;;;;;21.70;53.30;;;;;;5074844;28;20437;-60
2023/09/24 11:02:41;;;;;;;;;;;21.70;53.30;;;;;;5070261;28;19924;-58
2023/09/24 11:05:09;;;;;;;;;;;21.70;53.30;;;;;;5084245;28;20028;-59
2023/09/24 11:07:36;;;;;;;;;;;21.70;53.30;;;;;;5089915;28;20026;-61
2023/09/24 11:10:04;;;;;;;;;;;21.60;53.20;;;;;;5062246;28;19921;-57
2023/09/24 11:12:30;;;;;;;;;;;21.70;53.20;;;;;;5071104;28;19920;-60
2023/09/24 11:14:58;;;;;;;;;;;21.70;53.20;;;;;;5076448;28;19925;-59
2023/09/24 11:17:24;;;;;;;;;;;21.60;53.20;;;;;;5083128;28;19924;-58
2023/09/24 11:19:51;;;;;;;;;;;21.60;53.20;;;;;;5062723;28;19924;-60
2023/09/24 11:22:20;;;;;;;;;;;21.60;53.20;;;;;;5066719;28;20385;-60
2023/09/24 11:24:47;;;;;;;;;;;21.60;53.10;;;;;;5062422;28;20032;-59
2023/09/24 11:27:14;;;;;;;;;;;21.60;53.10;;;;;;5079934;28;19974;-58
2023/09/24 11:29:40;;;;;;;;;;;21.60;53.10;;;;;;5079335;28;19935;-60
2023/09/24 11:32:07;;;;;;;;;;;21.60;53.00;;;;;;5068515;28;20300;-61
2023/09/24 11:34:34;;;;;;;;;;;21.60;53.00;;;;;;5064108;28;19925;-59
2023/09/24 11:37:01;;;;;;;;;;;21.60;53.10;;;;;;5083289;28;19924;-60
2023/09/24 11:39:29;;;;;;;;;;;21.60;53.10;;;;;;5074179;28;19953;-59
2023/09/24 11:41:57;;;;;;;;;;;21.60;53.10;;;;;;5065806;28;20022;-59
2023/09/24 11:44:24;;;;;;;;;;;21.60;53.10;;;;;;5075851;28;19959;-59
2023/09/24 11:46:50;;;;;;;;;;;21.60;53.10;;;;;;5058723;28;19924;-60
2023/09/24 11:49:17;;;;;;;;;;;21.60;53.10;;;;;;5077311;28;20389;-60
2023/09/24 11:51:44;;;;;;;;;;;21.60;53.10;;;;;;5069415;28;19924;-56
2023/09/24 11:54:13;;;;;;;;;;;21.60;53.20;;;;;;5060863;28;19925;-60
2023/09/24 11:56:41;;;;;;;;;;;21.60;53.50;;;;;;5068015;28;19924;-62
2023/09/24 11:59:08;;;;;;;;;;;21.60;53.70;;;;;;5076846;28;19970;-61
2023/09/24 12:01:35;;;;;;;;;;;21.60;53.80;;;;;;5061144;28;19928;-62
2023/09/24 12:04:02;;;;;;;;;;;21.60;53.80;;;;;;5062658;28;19928;-63
2023/09/24 12:06:28;;;;;;;;;;;21.60;53.70;;;;;;5064103;28;19924;-62
2023/09/24 12:08:55;;;;;;;;;;;21.60;53.80;;;;;;5052007;28;20342;-62
2023/09/24 12:11:22;;;;;;;;;;;21.60;53.70;;;;;;5079006;28;19929;-62
2023/09/24 12:13:51;;;;;;;;;;;21.60;53.70;;;;;;5077410;28;19938;-61
2023/09/24 12:16:17;;;;;;;;;;;21.60;53.70;;;;;;5063109;28;19928;-62
2023/09/24 12:18:46;;;;;;;;;;;21.60;53.60;;;;;;5047590;28;19935;-62
2023/09/24 12:21:13;;;;;;;;;;;21.60;53.60;;;;;;5075675;28;20422;-61
2023/09/24 12:23:39;;;;;;;;;;;21.60;53.60;;;;;;5054162;28;20156;-62
2023/09/24 12:26:06;;;;;;;;;;;21.60;53.60;;;;;;5063901;28;19932;-62
2023/09/24 12:28:33;;;;;;;;;;;21.60;53.50;;;;;;5062165;28;19925;-62
2023/09/24 12:31:01;;;;;;;;;;;21.60;53.50;;;;;;5069906;28;20285;-62
2023/09/24 12:33:28;;;;;;;;;;;21.60;53.50;;;;;;5082188;28;19963;-62
2023/09/24 12:35:55;;;;;;;;;;;21.60;53.50;;;;;;5067789;28;19924;-62
2023/09/24 12:38:21;;;;;;;;;;;21.60;53.40;;;;;;5071694;28;19924;-62
2023/09/24 12:40:49;;;;;;;;;;;21.60;53.40;;;;;;5072146;28;20353;-61
2023/09/24 12:43:16;;;;;;;;;;;21.60;53.40;;;;;;5080442;28;19928;-62
2023/09/24 12:45:43;;;;;;;;;;;21.60;53.40;;;;;;5073962;28;19939;-61
2023/09/24 12:48:11;;;;;;;;;;;21.60;53.40;;;;;;5067154;28;19924;-62
2023/09/24 12:50:38;;;;;;;;;;;21.70;53.40;;;;;;5058615;28;19928;-62
2023/09/24 12:53:05;;;;;;;;;;;21.70;53.40;;;;;;5057627;28;20289;-62
2023/09/24 12:55:32;;;;;;;;;;;21.70;53.40;;;;;;5053880;28;19996;-62
2023/09/24 12:57:58;;;;;;;;;;;21.70;53.40;;;;;;5061937;28;19930;-62
2023/09/24 13:00:25;;;;;;;;;;;21.70;53.30;;;;;;5081708;28;19935;-60
2023/09/24 13:02:52;;;;;;;;;;;21.70;53.30;;;;;;5080321;28;19928;-61
2023/09/24 13:05:21;;;;;;;;;;;21.70;53.30;;;;;;5079734;28;20679;-61
2023/09/24 13:07:48;;;;;;;;;;;21.70;53.30;;;;;;5080175;28;19955;-61
2023/09/24 13:10:15;;;;;;;;;;;21.70;53.30;;;;;;5089270;28;19931;-61
2023/09/24 13:12:42;;;;;;;;;;;21.70;53.30;;;;;;5081932;28;20409;-61
2023/09/24 13:15:09;;;;;;;;;;;21.70;53.20;;;;;;5090536;28;19931;-60
2023/09/24 13:17:36;;;;;;;;;;;21.70;53.20;;;;;;5078316;28;19987;-60
2023/09/24 13:20:04;;;;;;;;;;;21.70;53.20;;;;;;5078051;28;19928;-61
2023/09/24 13:22:32;;;;;;;;;;;21.70;53.20;;;;;;5078932;28;20010;-61
2023/09/24 13:24:59;;;;;;;;;;;21.70;53.20;;;;;;5078933;28;19924;-61
2023/09/24 13:27:26;;;;;;;;;;;21.70;53.20;;;;;;5070261;28;19928;-61
2023/09/24 13:29:53;;;;;;;;;;;21.70;53.20;;;;;;5100717;28;19932;-61
2023/09/24 13:32:20;;;;;;;;;;;21.70;53.20;;;;;;5080070;28;19925;-61
2023/09/24 13:34:47;;;;;;;;;;;21.70;53.20;;;;;;5082498;28;19960;-61
2023/09/24 13:37:14;;;;;;;;;;;21.70;53.20;;;;;;5067400;28;19924;-61
2023/09/24 13:39:43;;;;;;;;;;;21.70;53.20;;;;;;5076522;28;19932;-60
2023/09/24 13:42:09;;;;;;;;;;;21.70;53.20;;;;;;5081580;28;19931;-60
2023/09/24 13:44:36;;;;;;;;;;;21.80;53.20;;;;;;5099025;28;19928;-61
2023/09/24 13:47:03;;;;;;;;;;;21.80;53.20;;;;;;5080830;28;19929;-61
2023/09/24 13:49:30;;;;;;;;;;;21.70;53.10;;;;;;5081600;28;19954;-61
2023/09/24 13:51:56;;;;;;;;;;;21.80;53.20;;;;;;5060317;28;20378;-61
2023/09/24 13:54:23;;;;;;;;;;;21.80;53.20;;;;;;5071000;28;20592;-61
2023/09/24 13:56:51;;;;;;;;;;;21.80;53.20;;;;;;5068925;28;19929;-61
2023/09/24 13:59:18;;;;;;;;;;;21.80;53.20;;;;;;5086662;28;19932;-61
2023/09/24 14:01:45;;;;;;;;;;;21.80;53.10;;;;;;5084977;28;19924;-61
2023/09/24 14:04:12;;;;;;;;;;;21.80;53.20;;;;;;5057385;28;20402;-61
2023/09/24 14:06:38;;;;;;;;;;;21.80;53.10;;;;;;5084672;28;20312;-61
2023/09/24 14:14:35;;;;;;;;;;;21.80;53.10;;;;;;5099882;28;20448;-61
2023/09/24 14:17:02;;;;;;;;;;;21.80;53.10;;;;;;5074281;28;19930;-60
2023/09/24 14:19:29;;;;;;;;;;;21.80;53.00;;;;;;5057320;28;20018;-61
2023/09/24 14:21:57;;;;;;;;;;;21.80;53.00;;;;;;5068860;28;19928;-60
2023/09/24 14:24:24;;;;;;;;;;;21.80;53.00;;;;;;5098530;28;19930;-60